sensor_id;sensor_type;location;lat;lon;timestamp;pressure;altitude;pressure_sealevel;temperature;humidity
60642;BME280;46837;52.446;-1.930;2023-07-30T00:00:09;99302.93;;;15.60;67.44
60642;BME280;46837;52.446;-1.930;2023-07-30T00:01:09;99305.55;;;15.59;67.57
60642;BME280;46837;52.446;-1.930;2023-07-30T00:02:09;99302.67;;;15.60;67.56
60642;BME280;46837;52.446;-1.930;2023-07-30T00:03:09;99298.39;;;15.59;67.64
60642;BME280;46837;52.446;-1.930;2023-07-30T00:04:09;99303.37;;;15.55;67.83
60642;BME280;46837;52.446;-1.930;2023-07-30T00:05:09;99301.04;;;15.52;67.96
60642;BME280;46837;52.446;-1.930;2023-07-30T00:06:09;99303.64;;;15.54;67.85
60642;BME280;46837;52.446;-1.930;2023-07-30T00:07:09;99300.85;;;15.57;67.80
60642;BME280;46837;52.446;-1.930;2023-07-30T00:08:09;99309.98;;;15.61;67.61
60642;BME280;46837;52.446;-1.930;2023-07-30T00:09:09;99304.68;;;15.58;67.84
60642;BME280;46837;52.446;-1.930;2023-07-30T00:10:09;99304.45;;;15.58;67.87
60642;BME280;46837;52.446;-1.930;2023-07-30T00:11:09;99307.77;;;15.59;67.83
60642;BME280;46837;52.446;-1.930;2023-07-30T00:12:09;99309.96;;;15.58;67.80
60642;BME280;46837;52.446;-1.930;2023-07-30T00:13:09;99315.95;;;15.60;67.83
60642;BME280;46837;52.446;-1.930;2023-07-30T00:14:09;99316.01;;;15.60;67.80
60642;BME280;46837;52.446;-1.930;2023-07-30T00:15:09;99318.32;;;15.62;67.71
60642;BME280;46837;52.446;-1.930;2023-07-30T00:16:09;99316.32;;;15.57;67.90
60642;BME280;46837;52.446;-1.930;2023-07-30T00:17:09;99319.09;;;15.56;68.01
60642;BME280;46837;52.446;-1.930;2023-07-30T00:18:09;99318.94;;;15.54;68.04
60642;BME280;46837;52.446;-1.930;2023-07-30T00:19:09;99321.97;;;15.48;68.16
60642;BME280;46837;52.446;-1.930;2023-07-30T00:20:09;99317.10;;;15.46;68.35
60642;BME280;46837;52.446;-1.930;2023-07-30T00:21:09;99317.83;;;15.51;68.18
60642;BME280;46837;52.446;-1.930;2023-07-30T00:22:09;99313.86;;;15.55;67.98
60642;BME280;46837;52.446;-1.930;2023-07-30T00:23:09;99315.86;;;15.48;68.18
60642;BME280;46837;52.446;-1.930;2023-07-30T00:24:09;99312.27;;;15.49;68.24
60642;BME280;46837;52.446;-1.930;2023-07-30T00:25:09;99317.77;;;15.51;68.12
60642;BME280;46837;52.446;-1.930;2023-07-30T00:26:09;99315.93;;;15.46;68.32
60642;BME280;46837;52.446;-1.930;2023-07-30T00:27:09;99317.70;;;15.49;68.28
60642;BME280;46837;52.446;-1.930;2023-07-30T00:28:09;99321.13;;;15.47;68.39
60642;BME280;46837;52.446;-1.930;2023-07-30T00:29:09;99317.80;;;15.46;68.38
60642;BME280;46837;52.446;-1.930;2023-07-30T00:30:09;99320.57;;;15.46;68.36
60642;BME280;46837;52.446;-1.930;2023-07-30T00:31:09;99322.49;;;15.46;68.43
60642;BME280;46837;52.446;-1.930;2023-07-30T00:32:09;99322.74;;;15.43;68.42
60642;BME280;46837;52.446;-1.930;2023-07-30T00:33:09;99322.59;;;15.43;68.44
60642;BME280;46837;52.446;-1.930;2023-07-30T00:34:09;99320.30;;;15.40;68.50
60642;BME280;46837;52.446;-1.930;2023-07-30T00:35:11;99325.86;;;15.44;68.46
60642;BME280;46837;52.446;-1.930;2023-07-30T00:36:09;99324.39;;;15.47;68.31
60642;BME280;46837;52.446;-1.930;2023-07-30T00:37:09;99324.23;;;15.47;68.28
60642;BME280;46837;52.446;-1.930;2023-07-30T00:38:09;99324.04;;;15.46;68.29
60642;BME280;46837;52.446;-1.930;2023-07-30T00:39:09;99321.29;;;15.42;68.45
60642;BME280;46837;52.446;-1.930;2023-07-30T00:40:09;99318.84;;;15.39;68.64
60642;BME280;46837;52.446;-1.930;2023-07-30T00:41:09;99319.64;;;15.40;68.63
60642;BME280;46837;52.446;-1.930;2023-07-30T00:42:09;99317.94;;;15.34;68.81
60642;BME280;46837;52.446;-1.930;2023-07-30T00:43:09;99315.52;;;15.29;69.03
60642;BME280;46837;52.446;-1.930;2023-07-30T00:44:09;99318.06;;;15.32;68.97
60642;BME280;46837;52.446;-1.930;2023-07-30T00:45:09;99317.05;;;15.34;68.83
60642;BME280;46837;52.446;-1.930;2023-07-30T00:46:09;99322.39;;;15.31;69.02
60642;BME280;46837;52.446;-1.930;2023-07-30T00:47:09;99322.73;;;15.33;68.95
60642;BME280;46837;52.446;-1.930;2023-07-30T00:48:11;99317.67;;;15.32;68.95
60642;BME280;46837;52.446;-1.930;2023-07-30T00:49:11;99321.50;;;15.24;69.26
60642;BME280;46837;52.446;-1.930;2023-07-30T00:50:09;99319.40;;;15.26;69.28
60642;BME280;46837;52.446;-1.930;2023-07-30T00:51:09;99319.34;;;15.28;69.29
60642;BME280;46837;52.446;-1.930;2023-07-30T00:52:09;99320.06;;;15.28;69.24
60642;BME280;46837;52.446;-1.930;2023-07-30T00:53:09;99322.04;;;15.28;69.25
60642;BME280;46837;52.446;-1.930;2023-07-30T00:54:09;99313.75;;;15.29;69.23
60642;BME280;46837;52.446;-1.930;2023-07-30T00:55:09;99316.57;;;15.25;69.40
60642;BME280;46837;52.446;-1.930;2023-07-30T00:56:09;99321.34;;;15.27;69.26
60642;BME280;46837;52.446;-1.930;2023-07-30T00:57:09;99321.90;;;15.27;69.30
60642;BME280;46837;52.446;-1.930;2023-07-30T00:58:09;99317.44;;;15.27;69.34
60642;BME280;46837;52.446;-1.930;2023-07-30T00:59:09;99320.33;;;15.28;69.29
60642;BME280;46837;52.446;-1.930;2023-07-30T01:00:11;99322.68;;;15.28;69.24
60642;BME280;46837;52.446;-1.930;2023-07-30T01:01:09;99321.90;;;15.27;69.33
60642;BME280;46837;52.446;-1.930;2023-07-30T01:02:09;99316.28;;;15.27;69.25
60642;BME280;46837;52.446;-1.930;2023-07-30T01:03:09;99319.61;;;15.25;69.38
60642;BME280;46837;52.446;-1.930;2023-07-30T01:04:09;99317.03;;;15.28;69.27
60642;BME280;46837;52.446;-1.930;2023-07-30T01:05:09;99317.90;;;15.28;69.29
60642;BME280;46837;52.446;-1.930;2023-07-30T01:06:09;99316.99;;;15.26;69.33
60642;BME280;46837;52.446;-1.930;2023-07-30T01:07:09;99317.32;;;15.30;69.17
60642;BME280;46837;52.446;-1.930;2023-07-30T01:08:09;99316.99;;;15.26;69.38
60642;BME280;46837;52.446;-1.930;2023-07-30T01:09:09;99314.91;;;15.29;69.41
60642;BME280;46837;52.446;-1.930;2023-07-30T01:10:09;99314.47;;;15.29;69.33
60642;BME280;46837;52.446;-1.930;2023-07-30T01:11:09;99316.21;;;15.30;69.43
60642;BME280;46837;52.446;-1.930;2023-07-30T01:12:09;99311.73;;;15.32;69.45
60642;BME280;46837;52.446;-1.930;2023-07-30T01:13:09;99312.80;;;15.31;69.43
60642;BME280;46837;52.446;-1.930;2023-07-30T01:14:09;99308.36;;;15.34;69.44
60642;BME280;46837;52.446;-1.930;2023-07-30T01:15:09;99306.75;;;15.35;69.43
60642;BME280;46837;52.446;-1.930;2023-07-30T01:16:09;99302.73;;;15.37;69.35
60642;BME280;46837;52.446;-1.930;2023-07-30T01:17:09;99302.77;;;15.35;69.39
60642;BME280;46837;52.446;-1.930;2023-07-30T01:18:09;99301.87;;;15.36;69.37
60642;BME280;46837;52.446;-1.930;2023-07-30T01:19:09;99309.52;;;15.38;69.42
60642;BME280;46837;52.446;-1.930;2023-07-30T01:20:10;99310.12;;;15.38;69.37
60642;BME280;46837;52.446;-1.930;2023-07-30T01:21:09;99315.96;;;15.41;69.24
60642;BME280;46837;52.446;-1.930;2023-07-30T01:22:09;99319.54;;;15.44;69.24
60642;BME280;46837;52.446;-1.930;2023-07-30T01:23:09;99316.96;;;15.40;69.31
60642;BME280;46837;52.446;-1.930;2023-07-30T01:24:09;99313.53;;;15.40;69.32
60642;BME280;46837;52.446;-1.930;2023-07-30T01:25:09;99312.27;;;15.42;69.39
60642;BME280;46837;52.446;-1.930;2023-07-30T01:26:10;99307.97;;;15.45;69.23
60642;BME280;46837;52.446;-1.930;2023-07-30T01:27:12;99317.41;;;15.48;69.25
60642;BME280;46837;52.446;-1.930;2023-07-30T01:28:12;99323.73;;;15.48;69.23
60642;BME280;46837;52.446;-1.930;2023-07-30T01:29:15;99324.84;;;15.46;69.35
60642;BME280;46837;52.446;-1.930;2023-07-30T01:30:18;99326.80;;;15.45;69.39
60642;BME280;46837;52.446;-1.930;2023-07-30T01:31:09;99322.07;;;15.45;69.37
60642;BME280;46837;52.446;-1.930;2023-07-30T01:32:10;99323.28;;;15.44;69.45
60642;BME280;46837;52.446;-1.930;2023-07-30T01:33:11;99330.54;;;15.45;69.45
60642;BME280;46837;52.446;-1.930;2023-07-30T01:34:09;99334.28;;;15.49;69.42
60642;BME280;46837;52.446;-1.930;2023-07-30T01:35:09;99334.36;;;15.48;69.51
60642;BME280;46837;52.446;-1.930;2023-07-30T01:36:09;99336.39;;;15.51;69.40
60642;BME280;46837;52.446;-1.930;2023-07-30T01:37:11;99337.11;;;15.52;69.42
60642;BME280;46837;52.446;-1.930;2023-07-30T01:38:09;99335.41;;;15.48;69.71
60642;BME280;46837;52.446;-1.930;2023-07-30T01:39:10;99334.90;;;15.47;69.73
60642;BME280;46837;52.446;-1.930;2023-07-30T01:40:09;99335.79;;;15.50;69.53
60642;BME280;46837;52.446;-1.930;2023-07-30T01:41:09;99338.04;;;15.49;69.71
60642;BME280;46837;52.446;-1.930;2023-07-30T01:42:11;99336.74;;;15.46;69.77
60642;BME280;46837;52.446;-1.930;2023-07-30T01:43:09;99338.58;;;15.48;69.95
60642;BME280;46837;52.446;-1.930;2023-07-30T01:44:09;99338.59;;;15.45;70.22
60642;BME280;46837;52.446;-1.930;2023-07-30T01:45:09;99340.35;;;15.49;70.21
60642;BME280;46837;52.446;-1.930;2023-07-30T01:46:09;99340.14;;;15.47;70.48
60642;BME280;46837;52.446;-1.930;2023-07-30T01:47:09;99341.91;;;15.54;70.49
60642;BME280;46837;52.446;-1.930;2023-07-30T01:48:09;99343.06;;;15.54;70.67
60642;BME280;46837;52.446;-1.930;2023-07-30T01:49:09;99343.18;;;15.57;70.75
60642;BME280;46837;52.446;-1.930;2023-07-30T01:50:09;99344.67;;;15.54;71.10
60642;BME280;46837;52.446;-1.930;2023-07-30T01:51:09;99346.70;;;15.58;71.29
60642;BME280;46837;52.446;-1.930;2023-07-30T01:52:09;99346.70;;;15.58;71.49
60642;BME280;46837;52.446;-1.930;2023-07-30T01:53:09;99342.98;;;15.57;71.71
60642;BME280;46837;52.446;-1.930;2023-07-30T01:54:09;99341.16;;;15.57;72.14
60642;BME280;46837;52.446;-1.930;2023-07-30T01:55:09;99341.72;;;15.56;72.20
60642;BME280;46837;52.446;-1.930;2023-07-30T01:56:09;99340.07;;;15.55;72.30
60642;BME280;46837;52.446;-1.930;2023-07-30T01:57:09;99340.43;;;15.58;72.45
60642;BME280;46837;52.446;-1.930;2023-07-30T01:58:09;99336.12;;;15.56;72.61
60642;BME280;46837;52.446;-1.930;2023-07-30T01:59:09;99339.47;;;15.55;72.87
60642;BME280;46837;52.446;-1.930;2023-07-30T02:00:09;99336.23;;;15.58;72.65
60642;BME280;46837;52.446;-1.930;2023-07-30T02:01:09;99343.45;;;15.55;72.73
60642;BME280;46837;52.446;-1.930;2023-07-30T02:02:09;99343.50;;;15.59;72.63
60642;BME280;46837;52.446;-1.930;2023-07-30T02:03:09;99348.93;;;15.64;72.47
60642;BME280;46837;52.446;-1.930;2023-07-30T02:04:09;99355.43;;;15.67;72.49
60642;BME280;46837;52.446;-1.930;2023-07-30T02:05:09;99356.39;;;15.65;72.61
60642;BME280;46837;52.446;-1.930;2023-07-30T02:06:09;99353.73;;;15.66;72.58
60642;BME280;46837;52.446;-1.930;2023-07-30T02:07:09;99357.55;;;15.69;72.69
60642;BME280;46837;52.446;-1.930;2023-07-30T02:08:09;99357.58;;;15.60;72.80
60642;BME280;46837;52.446;-1.930;2023-07-30T02:09:09;99360.78;;;15.60;73.14
60642;BME280;46837;52.446;-1.930;2023-07-30T02:10:09;99353.70;;;15.57;73.24
60642;BME280;46837;52.446;-1.930;2023-07-30T02:11:09;99356.57;;;15.61;73.38
60642;BME280;46837;52.446;-1.930;2023-07-30T02:12:09;99359.96;;;15.63;73.35
60642;BME280;46837;52.446;-1.930;2023-07-30T02:13:09;99359.64;;;15.61;73.47
60642;BME280;46837;52.446;-1.930;2023-07-30T02:14:09;99356.84;;;15.64;73.50
60642;BME280;46837;52.446;-1.930;2023-07-30T02:15:09;99354.91;;;15.51;74.00
60642;BME280;46837;52.446;-1.930;2023-07-30T02:16:09;99356.34;;;15.50;74.17
60642;BME280;46837;52.446;-1.930;2023-07-30T02:17:09;99353.30;;;15.56;74.20
60642;BME280;46837;52.446;-1.930;2023-07-30T02:18:09;99351.71;;;15.55;74.09
60642;BME280;46837;52.446;-1.930;2023-07-30T02:19:09;99354.42;;;15.54;74.26
60642;BME280;46837;52.446;-1.930;2023-07-30T02:20:09;99349.29;;;15.46;74.43
60642;BME280;46837;52.446;-1.930;2023-07-30T02:21:09;99347.00;;;15.46;74.65
60642;BME280;46837;52.446;-1.930;2023-07-30T02:22:09;99349.29;;;15.46;74.59
60642;BME280;46837;52.446;-1.930;2023-07-30T02:23:09;99350.30;;;15.38;74.77
60642;BME280;46837;52.446;-1.930;2023-07-30T02:24:12;99356.46;;;15.35;75.03
60642;BME280;46837;52.446;-1.930;2023-07-30T02:25:09;99349.14;;;15.35;74.99
60642;BME280;46837;52.446;-1.930;2023-07-30T02:26:09;99352.54;;;15.32;75.05
60642;BME280;46837;52.446;-1.930;2023-07-30T02:27:09;99355.78;;;15.32;75.26
60642;BME280;46837;52.446;-1.930;2023-07-30T02:28:09;99350.91;;;15.29;75.23
60642;BME280;46837;52.446;-1.930;2023-07-30T02:29:09;99348.03;;;15.27;75.24
60642;BME280;46837;52.446;-1.930;2023-07-30T02:30:09;99353.45;;;15.29;75.24
60642;BME280;46837;52.446;-1.930;2023-07-30T02:31:09;99351.12;;;15.23;75.58
60642;BME280;46837;52.446;-1.930;2023-07-30T02:32:09;99347.79;;;15.28;75.52
60642;BME280;46837;52.446;-1.930;2023-07-30T02:33:09;99349.02;;;15.26;75.56
60642;BME280;46837;52.446;-1.930;2023-07-30T02:34:09;99349.22;;;15.24;75.76
60642;BME280;46837;52.446;-1.930;2023-07-30T02:35:09;99349.73;;;15.26;75.67
60642;BME280;46837;52.446;-1.930;2023-07-30T02:36:09;99349.66;;;15.28;75.71
60642;BME280;46837;52.446;-1.930;2023-07-30T02:37:09;99348.59;;;15.29;75.65
60642;BME280;46837;52.446;-1.930;2023-07-30T02:38:09;99353.65;;;15.26;75.70
60642;BME280;46837;52.446;-1.930;2023-07-30T02:39:09;99352.56;;;15.29;75.74
60642;BME280;46837;52.446;-1.930;2023-07-30T02:40:09;99349.79;;;15.28;75.73
60642;BME280;46837;52.446;-1.930;2023-07-30T02:41:09;99348.51;;;15.27;75.92
60642;BME280;46837;52.446;-1.930;2023-07-30T02:42:09;99347.19;;;15.28;75.88
60642;BME280;46837;52.446;-1.930;2023-07-30T02:43:09;99340.96;;;15.29;75.89
60642;BME280;46837;52.446;-1.930;2023-07-30T02:44:09;99344.14;;;15.29;75.83
60642;BME280;46837;52.446;-1.930;2023-07-30T02:45:09;99342.65;;;15.29;75.88
60642;BME280;46837;52.446;-1.930;2023-07-30T02:46:09;99340.21;;;15.31;75.82
60642;BME280;46837;52.446;-1.930;2023-07-30T02:47:09;99337.63;;;15.26;76.04
60642;BME280;46837;52.446;-1.930;2023-07-30T02:48:09;99339.54;;;15.23;75.96
60642;BME280;46837;52.446;-1.930;2023-07-30T02:49:09;99342.90;;;15.19;76.18
60642;BME280;46837;52.446;-1.930;2023-07-30T02:50:09;99341.16;;;15.18;76.22
60642;BME280;46837;52.446;-1.930;2023-07-30T02:51:09;99340.96;;;15.13;76.36
60642;BME280;46837;52.446;-1.930;2023-07-30T02:52:09;99337.10;;;15.08;76.55
60642;BME280;46837;52.446;-1.930;2023-07-30T02:53:09;99336.36;;;15.09;76.62
60642;BME280;46837;52.446;-1.930;2023-07-30T02:54:09;99339.51;;;15.06;76.69
60642;BME280;46837;52.446;-1.930;2023-07-30T02:55:09;99343.77;;;15.09;76.69
60642;BME280;46837;52.446;-1.930;2023-07-30T02:56:09;99342.27;;;15.04;76.88
60642;BME280;46837;52.446;-1.930;2023-07-30T02:57:09;99339.09;;;14.99;77.21
60642;BME280;46837;52.446;-1.930;2023-07-30T02:58:09;99336.77;;;14.99;77.22
60642;BME280;46837;52.446;-1.930;2023-07-30T02:59:09;99333.11;;;14.89;77.61
60642;BME280;46837;52.446;-1.930;2023-07-30T03:00:09;99333.74;;;14.91;77.62
60642;BME280;46837;52.446;-1.930;2023-07-30T03:01:09;99335.39;;;14.91;77.71
60642;BME280;46837;52.446;-1.930;2023-07-30T03:02:09;99334.85;;;14.92;77.58
60642;BME280;46837;52.446;-1.930;2023-07-30T03:03:09;99335.76;;;14.93;77.75
60642;BME280;46837;52.446;-1.930;2023-07-30T03:04:09;99331.60;;;14.88;77.82
60642;BME280;46837;52.446;-1.930;2023-07-30T03:05:09;99330.97;;;14.85;78.18
60642;BME280;46837;52.446;-1.930;2023-07-30T03:06:09;99327.88;;;14.84;78.29
60642;BME280;46837;52.446;-1.930;2023-07-30T03:07:09;99335.64;;;14.86;78.28
60642;BME280;46837;52.446;-1.930;2023-07-30T03:08:09;99334.52;;;14.90;78.11
60642;BME280;46837;52.446;-1.930;2023-07-30T03:09:09;99337.10;;;14.91;78.09
60642;BME280;46837;52.446;-1.930;2023-07-30T03:10:09;99334.01;;;14.93;78.09
60642;BME280;46837;52.446;-1.930;2023-07-30T03:11:09;99336.72;;;14.96;78.06
60642;BME280;46837;52.446;-1.930;2023-07-30T03:12:09;99337.11;;;14.94;78.18
60642;BME280;46837;52.446;-1.930;2023-07-30T03:13:09;99337.66;;;14.96;78.12
60642;BME280;46837;52.446;-1.930;2023-07-30T03:14:09;99340.52;;;14.95;78.18
60642;BME280;46837;52.446;-1.930;2023-07-30T03:15:09;99336.06;;;14.95;78.18
60642;BME280;46837;52.446;-1.930;2023-07-30T03:16:09;99328.29;;;14.91;78.30
60642;BME280;46837;52.446;-1.930;2023-07-30T03:17:09;99336.27;;;14.89;78.37
60642;BME280;46837;52.446;-1.930;2023-07-30T03:18:09;99333.51;;;14.91;78.19
60642;BME280;46837;52.446;-1.930;2023-07-30T03:19:09;99335.23;;;14.91;78.10
60642;BME280;46837;52.446;-1.930;2023-07-30T03:20:09;99331.42;;;14.87;78.19
60642;BME280;46837;52.446;-1.930;2023-07-30T03:21:09;99335.50;;;14.87;78.12
60642;BME280;46837;52.446;-1.930;2023-07-30T03:22:09;99333.85;;;14.88;78.14
60642;BME280;46837;52.446;-1.930;2023-07-30T03:23:09;99336.91;;;14.88;78.06
60642;BME280;46837;52.446;-1.930;2023-07-30T03:24:09;99334.21;;;14.84;78.21
60642;BME280;46837;52.446;-1.930;2023-07-30T03:25:09;99334.21;;;14.84;78.25
60642;BME280;46837;52.446;-1.930;2023-07-30T03:26:09;99337.25;;;14.87;78.15
60642;BME280;46837;52.446;-1.930;2023-07-30T03:27:09;99332.07;;;14.85;78.09
60642;BME280;46837;52.446;-1.930;2023-07-30T03:28:09;99329.25;;;14.85;78.01
60642;BME280;46837;52.446;-1.930;2023-07-30T03:29:09;99329.55;;;14.85;78.09
60642;BME280;46837;52.446;-1.930;2023-07-30T03:30:09;99326.50;;;14.78;78.23
60642;BME280;46837;52.446;-1.930;2023-07-30T03:31:09;99333.98;;;14.76;78.46
60642;BME280;46837;52.446;-1.930;2023-07-30T03:32:09;99336.26;;;14.75;78.54
60642;BME280;46837;52.446;-1.930;2023-07-30T03:33:09;99332.25;;;14.77;78.46
60642;BME280;46837;52.446;-1.930;2023-07-30T03:34:09;99336.61;;;14.77;78.44
60642;BME280;46837;52.446;-1.930;2023-07-30T03:35:09;99338.38;;;14.78;78.37
60642;BME280;46837;52.446;-1.930;2023-07-30T03:36:12;99334.30;;;14.74;78.62
60642;BME280;46837;52.446;-1.930;2023-07-30T03:37:09;99337.04;;;14.77;78.50
60642;BME280;46837;52.446;-1.930;2023-07-30T03:38:09;99334.39;;;14.74;78.58
60642;BME280;46837;52.446;-1.930;2023-07-30T03:39:09;99335.09;;;14.76;78.48
60642;BME280;46837;52.446;-1.930;2023-07-30T03:40:09;99336.98;;;14.75;78.60
60642;BME280;46837;52.446;-1.930;2023-07-30T03:41:11;99334.64;;;14.72;78.68
60642;BME280;46837;52.446;-1.930;2023-07-30T03:42:09;99339.93;;;14.74;78.76
60642;BME280;46837;52.446;-1.930;2023-07-30T03:43:09;99342.64;;;14.74;78.75
60642;BME280;46837;52.446;-1.930;2023-07-30T03:44:09;99339.60;;;14.72;78.76
60642;BME280;46837;52.446;-1.930;2023-07-30T03:45:09;99339.46;;;14.73;78.80
60642;BME280;46837;52.446;-1.930;2023-07-30T03:46:09;99337.76;;;14.73;78.80
60642;BME280;46837;52.446;-1.930;2023-07-30T03:47:09;99339.58;;;14.74;78.78
60642;BME280;46837;52.446;-1.930;2023-07-30T03:48:09;99337.57;;;14.76;78.71
60642;BME280;46837;52.446;-1.930;2023-07-30T03:49:09;99340.75;;;14.76;78.74
60642;BME280;46837;52.446;-1.930;2023-07-30T03:50:09;99335.80;;;14.76;78.67
60642;BME280;46837;52.446;-1.930;2023-07-30T03:51:10;99340.01;;;14.73;78.94
60642;BME280;46837;52.446;-1.930;2023-07-30T03:52:09;99340.86;;;14.71;79.02
60642;BME280;46837;52.446;-1.930;2023-07-30T03:53:09;99338.08;;;14.69;79.18
60642;BME280;46837;52.446;-1.930;2023-07-30T03:54:09;99338.43;;;14.68;79.28
60642;BME280;46837;52.446;-1.930;2023-07-30T03:55:09;99338.79;;;14.70;79.23
60642;BME280;46837;52.446;-1.930;2023-07-30T03:56:09;99338.19;;;14.69;79.25
60642;BME280;46837;52.446;-1.930;2023-07-30T03:57:09;99339.87;;;14.62;79.74
60642;BME280;46837;52.446;-1.930;2023-07-30T03:58:09;99340.05;;;14.55;79.96
60642;BME280;46837;52.446;-1.930;2023-07-30T03:59:09;99335.46;;;14.58;79.86
60642;BME280;46837;52.446;-1.930;2023-07-30T04:00:09;99334.26;;;14.56;79.91
60642;BME280;46837;52.446;-1.930;2023-07-30T04:01:09;99337.82;;;14.49;80.37
60642;BME280;46837;52.446;-1.930;2023-07-30T04:02:09;99345.34;;;14.53;80.21
60642;BME280;46837;52.446;-1.930;2023-07-30T04:03:09;99341.46;;;14.56;79.97
60642;BME280;46837;52.446;-1.930;2023-07-30T04:04:09;99343.30;;;14.55;80.05
60642;BME280;46837;52.446;-1.930;2023-07-30T04:05:09;99346.29;;;14.58;79.87
60642;BME280;46837;52.446;-1.930;2023-07-30T04:06:09;99348.30;;;14.57;79.88
60642;BME280;46837;52.446;-1.930;2023-07-30T04:07:09;99347.50;;;14.58;79.82
60642;BME280;46837;52.446;-1.930;2023-07-30T04:08:09;99353.05;;;14.58;79.88
60642;BME280;46837;52.446;-1.930;2023-07-30T04:09:09;99352.59;;;14.57;79.99
60642;BME280;46837;52.446;-1.930;2023-07-30T04:10:09;99351.28;;;14.59;79.89
60642;BME280;46837;52.446;-1.930;2023-07-30T04:11:09;99350.89;;;14.59;79.87
60642;BME280;46837;52.446;-1.930;2023-07-30T04:12:09;99349.99;;;14.56;80.09
60642;BME280;46837;52.446;-1.930;2023-07-30T04:13:09;99354.47;;;14.59;80.05
60642;BME280;46837;52.446;-1.930;2023-07-30T04:14:10;99348.89;;;14.50;80.39
60642;BME280;46837;52.446;-1.930;2023-07-30T04:15:09;99352.55;;;14.54;80.30
60642;BME280;46837;52.446;-1.930;2023-07-30T04:16:09;99354.94;;;14.56;80.22
60642;BME280;46837;52.446;-1.930;2023-07-30T04:17:09;99356.15;;;14.51;80.46
60642;BME280;46837;52.446;-1.930;2023-07-30T04:18:09;99356.06;;;14.54;80.42
60642;BME280;46837;52.446;-1.930;2023-07-30T04:19:09;99357.80;;;14.57;80.28
60642;BME280;46837;52.446;-1.930;2023-07-30T04:20:09;99363.38;;;14.54;80.43
60642;BME280;46837;52.446;-1.930;2023-07-30T04:21:09;99365.96;;;14.59;80.24
60642;BME280;46837;52.446;-1.930;2023-07-30T04:22:09;99352.22;;;14.52;80.49
60642;BME280;46837;52.446;-1.930;2023-07-30T04:23:09;99363.89;;;14.53;80.53
60642;BME280;46837;52.446;-1.930;2023-07-30T04:24:09;99366.13;;;14.60;80.35
60642;BME280;46837;52.446;-1.930;2023-07-30T04:25:09;99362.98;;;14.65;80.09
60642;BME280;46837;52.446;-1.930;2023-07-30T04:26:09;99363.29;;;14.68;80.00
60642;BME280;46837;52.446;-1.930;2023-07-30T04:27:09;99366.49;;;14.70;79.79
60642;BME280;46837;52.446;-1.930;2023-07-30T04:28:09;99365.91;;;14.67;79.95
60642;BME280;46837;52.446;-1.930;2023-07-30T04:29:09;99367.27;;;14.70;79.85
60642;BME280;46837;52.446;-1.930;2023-07-30T04:30:09;99364.43;;;14.73;79.75
60642;BME280;46837;52.446;-1.930;2023-07-30T04:31:09;99366.05;;;14.76;79.57
60642;BME280;46837;52.446;-1.930;2023-07-30T04:32:09;99368.99;;;14.79;79.40
60642;BME280;46837;52.446;-1.930;2023-07-30T04:33:09;99368.36;;;14.80;79.33
60642;BME280;46837;52.446;-1.930;2023-07-30T04:34:09;99373.45;;;14.85;79.12
60642;BME280;46837;52.446;-1.930;2023-07-30T04:35:09;99370.84;;;14.90;78.87
60642;BME280;46837;52.446;-1.930;2023-07-30T04:36:09;99375.54;;;14.91;78.95
60642;BME280;46837;52.446;-1.930;2023-07-30T04:37:09;99371.76;;;14.91;78.78
60642;BME280;46837;52.446;-1.930;2023-07-30T04:38:09;99373.00;;;14.85;78.88
60642;BME280;46837;52.446;-1.930;2023-07-30T04:39:09;99376.25;;;14.85;79.10
60642;BME280;46837;52.446;-1.930;2023-07-30T04:40:09;99374.34;;;14.88;78.99
60642;BME280;46837;52.446;-1.930;2023-07-30T04:41:09;99376.27;;;14.95;78.68
60642;BME280;46837;52.446;-1.930;2023-07-30T04:42:09;99378.91;;;14.95;78.80
60642;BME280;46837;52.446;-1.930;2023-07-30T04:43:09;99372.13;;;14.97;78.75
60642;BME280;46837;52.446;-1.930;2023-07-30T04:44:09;99373.66;;;14.98;78.76
60642;BME280;46837;52.446;-1.930;2023-07-30T04:45:09;99375.09;;;15.03;78.53
60642;BME280;46837;52.446;-1.930;2023-07-30T04:46:09;99362.36;;;15.00;78.59
60642;BME280;46837;52.446;-1.930;2023-07-30T04:47:09;99372.95;;;14.97;78.58
60642;BME280;46837;52.446;-1.930;2023-07-30T04:48:09;99371.33;;;15.00;78.48
60642;BME280;46837;52.446;-1.930;2023-07-30T04:49:09;99371.89;;;15.00;78.49
60642;BME280;46837;52.446;-1.930;2023-07-30T04:50:09;99373.50;;;15.06;78.12
60642;BME280;46837;52.446;-1.930;2023-07-30T04:51:09;99377.41;;;15.07;78.04
60642;BME280;46837;52.446;-1.930;2023-07-30T04:52:09;99378.83;;;15.03;77.98
60642;BME280;46837;52.446;-1.930;2023-07-30T04:53:09;99380.07;;;15.06;78.07
60642;BME280;46837;52.446;-1.930;2023-07-30T04:54:09;99381.98;;;15.07;78.00
60642;BME280;46837;52.446;-1.930;2023-07-30T04:55:10;99382.80;;;15.15;77.67
60642;BME280;46837;52.446;-1.930;2023-07-30T04:56:09;99374.84;;;15.14;77.58
60642;BME280;46837;52.446;-1.930;2023-07-30T04:57:09;99376.22;;;15.14;77.53
60642;BME280;46837;52.446;-1.930;2023-07-30T04:58:09;99374.84;;;15.10;77.59
60642;BME280;46837;52.446;-1.930;2023-07-30T04:59:09;99363.95;;;15.18;77.29
60642;BME280;46837;52.446;-1.930;2023-07-30T05:00:09;99372.47;;;15.18;77.28
60642;BME280;46837;52.446;-1.930;2023-07-30T05:01:09;99367.11;;;15.21;77.18
60642;BME280;46837;52.446;-1.930;2023-07-30T05:02:09;99370.75;;;15.19;77.19
60642;BME280;46837;52.446;-1.930;2023-07-30T05:03:09;99374.58;;;15.13;77.42
60642;BME280;46837;52.446;-1.930;2023-07-30T05:04:09;99375.75;;;15.15;77.40
60642;BME280;46837;52.446;-1.930;2023-07-30T05:05:09;99381.88;;;15.18;77.33
60642;BME280;46837;52.446;-1.930;2023-07-30T05:06:09;99377.88;;;15.18;77.50
60642;BME280;46837;52.446;-1.930;2023-07-30T05:07:09;99382.95;;;15.15;77.72
60642;BME280;46837;52.446;-1.930;2023-07-30T05:08:09;99383.38;;;15.14;77.75
60642;BME280;46837;52.446;-1.930;2023-07-30T05:09:09;99382.04;;;15.14;77.80
60642;BME280;46837;52.446;-1.930;2023-07-30T05:10:09;99376.02;;;15.17;77.70
60642;BME280;46837;52.446;-1.930;2023-07-30T05:11:09;99386.71;;;15.15;77.79
60642;BME280;46837;52.446;-1.930;2023-07-30T05:12:09;99382.28;;;15.13;77.68
60642;BME280;46837;52.446;-1.930;2023-07-30T05:13:09;99379.52;;;15.12;77.57